Cape Balder — V7KA5 — position and weather

sailwx.info

Track history (hours):
 
Tides and Currents Weather Stations Pressure Air Temp Water Temp Dewpoint Dewpoint Depression Visibility Wind Speed Wind Dir Waves Ship Positions

Cape Balder

Last reported at 2014-Jul-15 07:16 UTC. Time now 2014-Nov-01 00:31 UTC.
Position N 36°04' W 005°11'.
Warning: this ship's position is months out of date.

Length 274 m; draft 9.1 m.

Type: Ship. MMSI: 538090229.

Date/timePositionNaut miles runAvg speedWind from/ knotsBaromVisibWave heightAir tempDewpointWater temp
2014-Jul-15 07:16N 36°04' W 005°11'5 2.8
2014-Jul-15 05:33N 36°05' W 005°17'138 6.8
2014-Jul-14 09:05N 36°24' W 002°27'4 8.0
2014-Jul-14 08:33N 36°24' W 002°22'18 7.7
2014-Jul-14 06:14N 36°32' W 002°02'91 7.7
2014-Jul-13 18:33N 37°32' W 000°37'7 7.4
2014-Jul-13 17:33N 37°37' W 000°30'7 7.0
2014-Jul-13 16:33N 37°43' W 000°25'7 7.2
2014-Jul-13 15:33N 37°49' W 000°20'8 7.5
2014-Jul-13 14:31N 37°55' W 000°14'8 7.8
2014-Jul-13 13:33N 38°00' W 000°07'4 3.7
2014-Jul-13 12:33N 38°03' W 000°04'1 0.7
2014-Jul-13 11:33N 38°04' W 000°03'1 0.5
2014-Jul-13 10:30N 38°04' W 000°03'1 0.6
2014-Jul-13 09:32N 38°04' W 000°02'1 1.4
2014-Jul-13 08:31N 38°05' W 000°01'94 7.6
2014-Jul-12 20:07N 39°21' E 001°11'5 7.9
2014-Jul-12 19:31N 39°25' E 001°15'7 7.7
2014-Jul-12 18:33N 39°31' E 001°20'10 7.8
2014-Jul-12 17:17N 39°39' E 001°28'6 8.0
2014-Jul-12 16:33N 39°43' E 001°33'8 8.1
2014-Jul-12 15:33N 39°50' E 001°39'8 8.0
2014-Jul-12 14:33N 39°56' E 001°46'8 7.8
2014-Jul-12 13:33N 40°02' E 001°52'8 7.8
2014-Jul-12 12:33N 40°09' E 001°58'8 7.6
2014-Jul-12 11:33N 40°15' E 002°04'7 7.1
2014-Jul-12 10:33N 40°20' E 002°10'7 7.1
2014-Jul-12 09:33N 40°26' E 002°15'7 7.2
2014-Jul-12 08:33N 40°32' E 002°21'7 7.3
2014-Jul-12 07:33N 40°37' E 002°27'7 7.4
2014-Jul-12 06:33N 40°43' E 002°33'8 7.6
2014-Jul-12 05:33N 40°49' E 002°39'8 7.6
2014-Jul-12 04:33N 40°55' E 002°45'7 7.4
2014-Jul-12 03:33N 41°01' E 002°51'8 7.5
2014-Jul-12 02:33N 41°07' E 002°57'9 7.9
2014-Jul-12 01:26N 41°14' E 003°04'10 7.9
2014-Jul-12 00:12N 41°22' E 003°12'5 8.0
2014-Jul-11 23:33N 41°26' E 003°16'8 7.8
2014-Jul-11 22:33N 41°32' E 003°22'15 7.6
2014-Jul-11 20:31N 41°45' E 003°35'9 9.9
2014-Jul-11 19:33N 41°52' E 003°43'2311.4
2014-Jul-11 17:31N 42°08' E 004°05'64 8.1
2014-Jul-11 09:32N 42°48' E 005°13'3 2.9
2014-Jul-11 08:31N 42°46' E 005°16'4 3.9
2014-Jul-11 07:31N 42°43' E 005°18'4 4.3
2014-Jul-11 06:33N 42°39' E 005°21'4 3.4
2014-Jul-11 05:31N 42°36' E 005°24'4 3.7
2014-Jul-11 04:26N 42°32' E 005°24'1 0.7
2014-Jul-11 03:26N 42°32' E 005°24'2 2.5
2014-Jul-11 02:29N 42°34' E 005°22'2 2.5
2014-Jul-11 01:31N 42°36' E 005°20'3 2.7
2014-Jul-11 00:31N 42°39' E 005°20'3 2.8
2014-Jul-10 23:31N 42°41' E 005°19'3 2.9
2014-Jul-10 22:30N 42°44' E 005°18'3 3.0
2014-Jul-10 21:30N 42°47' E 005°17'3 3.4
2014-Jul-10 20:30N 42°51' E 005°17'3 3.4
2014-Jul-10 19:30N 42°54' E 005°15'3 3.2
2014-Jul-10 18:31N 42°57' E 005°14'3 2.8
2014-Jul-10 17:22N 42°60' E 005°12'2 2.8
2014-Jul-10 16:33N 43°01' E 005°10'3 2.7
2014-Jul-10 15:32N 43°04' E 005°08'7 7.2
2014-Jul-10 14:33N 43°11' E 005°09'5 5.4
2014-Jul-10 13:33N 43°16' E 005°06'2 2.2
2014-Jul-10 12:34N 43°16' E 005°03'3 2.9
2014-Jul-10 11:33N 43°16' E 005°07'2 1.8
2014-Jul-10 10:34N 43°16' E 005°04'4 4.0
2014-Jul-10 09:34N 43°12' E 005°04'3 2.9
2014-Jul-10 08:33N 43°09' E 005°03'5 5.2
2014-Jul-10 07:33N 43°04' E 005°04'6 5.9
2014-Jul-10 06:32N 42°58' E 005°06'6 4.9
2014-Jul-10 05:15N 42°52' E 005°09'7 8.5
2014-Jul-10 04:25N 42°46' E 005°13'8 8.7
2014-Jul-10 03:30N 42°38' E 005°16'11 8.9
2014-Jul-10 02:14N 42°27' E 005°20'7 8.3
2014-Jul-10 01:27N 42°21' E 005°23'50 2.2
2014-Jul-09 02:25N 41°36' E 005°53'18 2.6
2014-Jul-08 19:28N 41°50' E 005°38'5 2.4
2014-Jul-08 17:29N 41°52' E 005°32'3 2.3
2014-Jul-08 16:07N 41°54' E 005°29'1 2.3
2014-Jul-08 15:29N 41°55' E 005°27'2 2.1
2014-Jul-08 14:24N 41°56' E 005°25'2 1.8
2014-Jul-08 13:07N 41°58' E 005°23'2 1.9
2014-Jul-08 12:07N 41°60' E 005°21'1 2.1
2014-Jul-08 11:27N 42°01' E 005°21'10 3.1
2014-Jul-08 08:15N 42°11' E 005°22'4 3.6
2014-Jul-08 07:07N 42°15' E 005°22'7 3.7
2014-Jul-08 05:07N 42°22' E 005°20'6 3.8
2014-Jul-08 03:32N 42°28' E 005°18'4 3.6
2014-Jul-08 02:31N 42°31' E 005°16'3 3.4
2014-Jul-08 01:32N 42°34' E 005°14'3 3.3
2014-Jul-08 00:33N 42°37' E 005°11'3 3.0
2014-Jul-07 23:31N 42°39' E 005°09'3 2.6
2014-Jul-07 22:33N 42°41' E 005°07'2 2.3
2014-Jul-07 21:31N 42°43' E 005°05'2 1.7
2014-Jul-07 20:33N 42°45' E 005°04'2 1.8
2014-Jul-07 19:32N 42°47' E 005°04'2 1.8
2014-Jul-07 18:33N 42°48' E 005°04'2 2.0
2014-Jul-07 17:33N 42°50' E 005°05'10 9.7
2014-Jul-07 16:29N 43°00' E 005°03'1212.0
2014-Jul-07 15:30N 43°12' E 005°01'910.1
2014-Jul-07 14:33N 43°21' E 004°56'0 0.1
2014-Jul-07 13:33N 43°21' E 004°56'0 0.1
2014-Jul-07 12:33N 43°21' E 004°56'0 0.0
2014-Jul-07 11:32N 43°21' E 004°56'0 0.0
2014-Jul-07 10:32N 43°21' E 004°56'0 0.3
2014-Jul-07 09:31N 43°21' E 004°56'0 0.1
2014-Jul-07 08:31N 43°21' E 004°56'0 0.1
2014-Jul-07 07:31N 43°21' E 004°56'0 0.0
2014-Jul-07 06:33N 43°21' E 004°56'0 0.0
2014-Jul-07 05:30N 43°21' E 004°56'0 0.0
2014-Jul-07 04:33N 43°21' E 004°56'0 0.0
2014-Jul-07 03:32N 43°21' E 004°56'0 0.0
2014-Jul-07 02:31N 43°21' E 004°56'0 0.0
2014-Jul-07 01:28N 43°21' E 004°56'0 0.0
2014-Jul-07 00:31N 43°21' E 004°56'0 0.1
2014-Jul-06 23:33N 43°21' E 004°56'0 0.0
2014-Jul-06 22:33N 43°21' E 004°56'0 0.0
2014-Jul-06 21:32N 43°21' E 004°56'0 0.0
2014-Jul-06 20:32N 43°21' E 004°56'0 0.0
2014-Jul-06 19:31N 43°21' E 004°56'0 0.0
2014-Jul-06 18:31N 43°21' E 004°56'0 0.0
2014-Jul-06 17:31N 43°21' E 004°56'0 0.0
2014-Jul-06 16:33N 43°21' E 004°56'0 0.0
2014-Jul-06 15:33N 43°21' E 004°56'0 0.0
2014-Jul-06 14:32N 43°21' E 004°56'0 0.0
2014-Jul-06 13:32N 43°21' E 004°56'0 0.0
2014-Jul-06 12:31N 43°21' E 004°56'0 0.1
2014-Jul-06 11:31N 43°21' E 004°56'0 0.0
2014-Jul-06 10:31N 43°21' E 004°56'0 0.0
2014-Jul-06 09:30N 43°21' E 004°56'0 0.0
2014-Jul-06 08:33N 43°21' E 004°56'0 0.0
2014-Jul-06 07:32N 43°21' E 004°56'0 0.0
2014-Jul-06 06:32N 43°21' E 004°56'0 0.0
2014-Jul-06 05:31N 43°21' E 004°56'0 0.0
2014-Jul-06 04:31N 43°21' E 004°56'0 0.0
2014-Jul-06 03:33N 43°21' E 004°56'0 0.0
2014-Jul-06 02:33N 43°21' E 004°56'0 0.0
2014-Jul-06 01:33N 43°21' E 004°56'0 0.0
2014-Jul-06 00:32N 43°21' E 004°56'0 0.2
2014-Jul-05 23:32N 43°21' E 004°56'0 0.1
2014-Jul-05 22:31N 43°21' E 004°56'0 0.1
2014-Jul-05 21:31N 43°21' E 004°57'0 0.0
2014-Jul-05 20:33N 43°21' E 004°57'0 0.1
2014-Jul-05 19:33N 43°21' E 004°57'0 0.0
2014-Jul-05 18:33N 43°21' E 004°57'2 1.8
2014-Jul-05 17:33N 43°23' E 004°57'3 2.8
2014-Jul-05 16:31N 43°25' E 004°53'0 0.0
2014-Jul-05 15:33N 43°25' E 004°53'0 0.0
2014-Jul-05 14:33N 43°25' E 004°53'0 0.0
2014-Jul-05 13:32N 43°25' E 004°53'0 0.0
2014-Jul-05 12:32N 43°25' E 004°53'0 0.0
2014-Jul-05 11:32N 43°25' E 004°53'0 0.0
2014-Jul-05 10:32N 43°25' E 004°53'0 0.0
2014-Jul-05 09:32N 43°25' E 004°53'0 0.0
2014-Jul-05 08:28N 43°25' E 004°53'0 0.0
2014-Jul-05 07:31N 43°25' E 004°53'  
Track history (hours):
 
Tides and Currents Weather Stations Pressure Air Temp Water Temp Dewpoint Dewpoint Depression Visibility Wind Speed Wind Dir Waves Ship Positions

Cape Balder

Last reported at 2014-Jul-15 07:16 UTC. Time now 2014-Nov-01 00:31 UTC.
Position N 36°04' W 005°11'.
Warning: this ship's position is months out of date.

Length 274 m; draft 9.1 m.

Type: Ship. MMSI: 538090229.

Date/timePositionNaut miles runAvg speedWind from/ knotsBaromVisibWave heightAir tempDewpointWater temp
2014-Jul-15 07:16N 36°04' W 005°11'5 2.8
2014-Jul-15 05:33N 36°05' W 005°17'138 6.8
2014-Jul-14 09:05N 36°24' W 002°27'4 8.0
2014-Jul-14 08:33N 36°24' W 002°22'18 7.7
2014-Jul-14 06:14N 36°32' W 002°02'91 7.7
2014-Jul-13 18:33N 37°32' W 000°37'7 7.4
2014-Jul-13 17:33N 37°37' W 000°30'7 7.0
2014-Jul-13 16:33N 37°43' W 000°25'7 7.2
2014-Jul-13 15:33N 37°49' W 000°20'8 7.5
2014-Jul-13 14:31N 37°55' W 000°14'8 7.8
2014-Jul-13 13:33N 38°00' W 000°07'4 3.7
2014-Jul-13 12:33N 38°03' W 000°04'1 0.7
2014-Jul-13 11:33N 38°04' W 000°03'1 0.5
2014-Jul-13 10:30N 38°04' W 000°03'1 0.6
2014-Jul-13 09:32N 38°04' W 000°02'1 1.4
2014-Jul-13 08:31N 38°05' W 000°01'94 7.6
2014-Jul-12 20:07N 39°21' E 001°11'5 7.9
2014-Jul-12 19:31N 39°25' E 001°15'7 7.7
2014-Jul-12 18:33N 39°31' E 001°20'10 7.8
2014-Jul-12 17:17N 39°39' E 001°28'6 8.0
2014-Jul-12 16:33N 39°43' E 001°33'8 8.1
2014-Jul-12 15:33N 39°50' E 001°39'8 8.0
2014-Jul-12 14:33N 39°56' E 001°46'8 7.8
2014-Jul-12 13:33N 40°02' E 001°52'8 7.8
2014-Jul-12 12:33N 40°09' E 001°58'8 7.6
2014-Jul-12 11:33N 40°15' E 002°04'7 7.1
2014-Jul-12 10:33N 40°20' E 002°10'7 7.1
2014-Jul-12 09:33N 40°26' E 002°15'7 7.2
2014-Jul-12 08:33N 40°32' E 002°21'7 7.3
2014-Jul-12 07:33N 40°37' E 002°27'7 7.4
2014-Jul-12 06:33N 40°43' E 002°33'8 7.6
2014-Jul-12 05:33N 40°49' E 002°39'8 7.6
2014-Jul-12 04:33N 40°55' E 002°45'7 7.4
2014-Jul-12 03:33N 41°01' E 002°51'8 7.5
2014-Jul-12 02:33N 41°07' E 002°57'9 7.9
2014-Jul-12 01:26N 41°14' E 003°04'10 7.9
2014-Jul-12 00:12N 41°22' E 003°12'5 8.0
2014-Jul-11 23:33N 41°26' E 003°16'8 7.8
2014-Jul-11 22:33N 41°32' E 003°22'15 7.6
2014-Jul-11 20:31N 41°45' E 003°35'9 9.9
2014-Jul-11 19:33N 41°52' E 003°43'2311.4
2014-Jul-11 17:31N 42°08' E 004°05'64 8.1
2014-Jul-11 09:32N 42°48' E 005°13'3 2.9
2014-Jul-11 08:31N 42°46' E 005°16'4 3.9
2014-Jul-11 07:31N 42°43' E 005°18'4 4.3
2014-Jul-11 06:33N 42°39' E 005°21'4 3.4
2014-Jul-11 05:31N 42°36' E 005°24'4 3.7
2014-Jul-11 04:26N 42°32' E 005°24'1 0.7
2014-Jul-11 03:26N 42°32' E 005°24'2 2.5
2014-Jul-11 02:29N 42°34' E 005°22'2 2.5
2014-Jul-11 01:31N 42°36' E 005°20'3 2.7
2014-Jul-11 00:31N 42°39' E 005°20'3 2.8
2014-Jul-10 23:31N 42°41' E 005°19'3 2.9
2014-Jul-10 22:30N 42°44' E 005°18'3 3.0
2014-Jul-10 21:30N 42°47' E 005°17'3 3.4
2014-Jul-10 20:30N 42°51' E 005°17'3 3.4
2014-Jul-10 19:30N 42°54' E 005°15'3 3.2
2014-Jul-10 18:31N 42°57' E 005°14'3 2.8
2014-Jul-10 17:22N 42°60' E 005°12'2 2.8
2014-Jul-10 16:33N 43°01' E 005°10'3 2.7
2014-Jul-10 15:32N 43°04' E 005°08'7 7.2
2014-Jul-10 14:33N 43°11' E 005°09'5 5.4
2014-Jul-10 13:33N 43°16' E 005°06'2 2.2
2014-Jul-10 12:34N 43°16' E 005°03'3 2.9
2014-Jul-10 11:33N 43°16' E 005°07'2 1.8
2014-Jul-10 10:34N 43°16' E 005°04'4 4.0
2014-Jul-10 09:34N 43°12' E 005°04'3 2.9
2014-Jul-10 08:33N 43°09' E 005°03'5 5.2
2014-Jul-10 07:33N 43°04' E 005°04'6 5.9
2014-Jul-10 06:32N 42°58' E 005°06'6 4.9
2014-Jul-10 05:15N 42°52' E 005°09'7 8.5
2014-Jul-10 04:25N 42°46' E 005°13'8 8.7
2014-Jul-10 03:30N 42°38' E 005°16'11 8.9
2014-Jul-10 02:14N 42°27' E 005°20'7 8.3
2014-Jul-10 01:27N 42°21' E 005°23'50 2.2
2014-Jul-09 02:25N 41°36' E 005°53'18 2.6
2014-Jul-08 19:28N 41°50' E 005°38'5 2.4
2014-Jul-08 17:29N 41°52' E 005°32'3 2.3
2014-Jul-08 16:07N 41°54' E 005°29'1 2.3
2014-Jul-08 15:29N 41°55' E 005°27'2 2.1
2014-Jul-08 14:24N 41°56' E 005°25'2 1.8
2014-Jul-08 13:07N 41°58' E 005°23'2 1.9
2014-Jul-08 12:07N 41°60' E 005°21'1 2.1
2014-Jul-08 11:27N 42°01' E 005°21'10 3.1
2014-Jul-08 08:15N 42°11' E 005°22'4 3.6
2014-Jul-08 07:07N 42°15' E 005°22'7 3.7
2014-Jul-08 05:07N 42°22' E 005°20'6 3.8
2014-Jul-08 03:32N 42°28' E 005°18'4 3.6
2014-Jul-08 02:31N 42°31' E 005°16'3 3.4
2014-Jul-08 01:32N 42°34' E 005°14'3 3.3
2014-Jul-08 00:33N 42°37' E 005°11'3 3.0
2014-Jul-07 23:31N 42°39' E 005°09'3 2.6
2014-Jul-07 22:33N 42°41' E 005°07'2 2.3
2014-Jul-07 21:31N 42°43' E 005°05'2 1.7
2014-Jul-07 20:33N 42°45' E 005°04'2 1.8
2014-Jul-07 19:32N 42°47' E 005°04'2 1.8
2014-Jul-07 18:33N 42°48' E 005°04'2 2.0
2014-Jul-07 17:33N 42°50' E 005°05'10 9.7
2014-Jul-07 16:29N 43°00' E 005°03'1212.0
2014-Jul-07 15:30N 43°12' E 005°01'910.1
2014-Jul-07 14:33N 43°21' E 004°56'0 0.1
2014-Jul-07 13:33N 43°21' E 004°56'0 0.1
2014-Jul-07 12:33N 43°21' E 004°56'0 0.0
2014-Jul-07 11:32N 43°21' E 004°56'0 0.0
2014-Jul-07 10:32N 43°21' E 004°56'0 0.3
2014-Jul-07 09:31N 43°21' E 004°56'0 0.1
2014-Jul-07 08:31N 43°21' E 004°56'0 0.1
2014-Jul-07 07:31N 43°21' E 004°56'0 0.0
2014-Jul-07 06:33N 43°21' E 004°56'0 0.0
2014-Jul-07 05:30N 43°21' E 004°56'0 0.0
2014-Jul-07 04:33N 43°21' E 004°56'0 0.0
2014-Jul-07 03:32N 43°21' E 004°56'0 0.0
2014-Jul-07 02:31N 43°21' E 004°56'0 0.0
2014-Jul-07 01:28N 43°21' E 004°56'0 0.0
2014-Jul-07 00:31N 43°21' E 004°56'0 0.1
2014-Jul-06 23:33N 43°21' E 004°56'0 0.0
2014-Jul-06 22:33N 43°21' E 004°56'0 0.0
2014-Jul-06 21:32N 43°21' E 004°56'0 0.0
2014-Jul-06 20:32N 43°21' E 004°56'0 0.0
2014-Jul-06 19:31N 43°21' E 004°56'0 0.0
2014-Jul-06 18:31N 43°21' E 004°56'0 0.0
2014-Jul-06 17:31N 43°21' E 004°56'0 0.0
2014-Jul-06 16:33N 43°21' E 004°56'0 0.0
2014-Jul-06 15:33N 43°21' E 004°56'0 0.0
2014-Jul-06 14:32N 43°21' E 004°56'0 0.0
2014-Jul-06 13:32N 43°21' E 004°56'0 0.0
2014-Jul-06 12:31N 43°21' E 004°56'0 0.1
2014-Jul-06 11:31N 43°21' E 004°56'0 0.0
2014-Jul-06 10:31N 43°21' E 004°56'0 0.0
2014-Jul-06 09:30N 43°21' E 004°56'0 0.0
2014-Jul-06 08:33N 43°21' E 004°56'0 0.0
2014-Jul-06 07:32N 43°21' E 004°56'0 0.0
2014-Jul-06 06:32N 43°21' E 004°56'0 0.0
2014-Jul-06 05:31N 43°21' E 004°56'0 0.0
2014-Jul-06 04:31N 43°21' E 004°56'0 0.0
2014-Jul-06 03:33N 43°21' E 004°56'0 0.0
2014-Jul-06 02:33N 43°21' E 004°56'0 0.0
2014-Jul-06 01:33N 43°21' E 004°56'0 0.0
2014-Jul-06 00:32N 43°21' E 004°56'0 0.2
2014-Jul-05 23:32N 43°21' E 004°56'0 0.1
2014-Jul-05 22:31N 43°21' E 004°56'0 0.1
2014-Jul-05 21:31N 43°21' E 004°57'0 0.0
2014-Jul-05 20:33N 43°21' E 004°57'0 0.1
2014-Jul-05 19:33N 43°21' E 004°57'0 0.0
2014-Jul-05 18:33N 43°21' E 004°57'2 1.8
2014-Jul-05 17:33N 43°23' E 004°57'3 2.8
2014-Jul-05 16:31N 43°25' E 004°53'0 0.0
2014-Jul-05 15:33N 43°25' E 004°53'0 0.0
2014-Jul-05 14:33N 43°25' E 004°53'0 0.0
2014-Jul-05 13:32N 43°25' E 004°53'0 0.0
2014-Jul-05 12:32N 43°25' E 004°53'0 0.0
2014-Jul-05 11:32N 43°25' E 004°53'0 0.0
2014-Jul-05 10:32N 43°25' E 004°53'0 0.0
2014-Jul-05 09:32N 43°25' E 004°53'0 0.0
2014-Jul-05 08:28N 43°25' E 004°53'0 0.0
2014-Jul-05 07:31N 43°25' E 004°53'  

Dump ship's entire track history